Latest Weather Observations for PORTABLE QFRK (Ravenshoe)

IDQ60801

Issued at 3:02 pm EST Monday 23 September 2019 (issued every 10 minutes, with the page automatically refreshed every 10 minutes)

About weather observations | Map of weather stations | Latest weather observations for QLD | Other Formats
Station Details ID: 250075 Name: PORTABLE QFRK (RAVENSHOE) Lat: -17.61 Lon: 145.49 Height: 922.0 m
Data from the previous 72 hours. | See also: Recent months for locations in Queensland
Date/Time
EST
Temp
°C
App
Temp
°C
Dew
Point
°C
Rel
Hum
%
Delta-T
°C
Wind Press
QNH
hPa
Press
MSL
hPa
Rain since
9am
mm
Dir  Spd
km/h
Gust
km/h
Spd
kts
Gust
kts
23/02:50pm 22.3 20.9 12.1 52 6.0 ESE 11 20 6 11 - - 0.0
23/02:40pm 21.8 19.2 12.1 54 5.7 ESE 17 20 9 11 - - 0.0
23/02:30pm 21.6 20.3 12.4 55 5.4 ESE 11 15 6 8 - - 0.0
23/02:20pm 21.5 19.8 12.6 57 5.3 SE 13 19 7 10 - - 0.0
23/02:10pm 21.2 20.0 12.8 58 5.0 ESE 11 19 6 10 - - 0.0
23/02:00pm 21.6 19.9 13.5 60 4.9 E 15 20 8 11 - - 0.0
23/01:50pm 21.9 19.5 12.8 56 5.4 E 17 24 9 13 - - 0.0
23/01:40pm 21.1 19.5 14.0 64 4.3 E 15 20 8 11 - - 0.0
23/01:30pm 21.0 18.5 13.5 62 4.5 E 19 22 10 12 - - 0.0
23/01:20pm 19.9 17.6 14.0 69 3.6 - 19 22 10 12 - - 0.0
23/01:10pm 20.0 17.6 13.7 67 3.8 E 19 22 10 12 - - 0.0
23/01:00pm 19.8 17.0 13.2 65 3.9 E 20 28 11 15 - - 0.0
23/12:50pm 20.0 17.5 13.6 66 3.8 E 19 28 10 15 - - 0.0
23/12:40pm 20.4 19.1 13.6 65 4.1 ESE 13 19 7 10 - - 0.0
23/12:30pm 20.4 19.2 13.9 66 3.9 ESE 13 19 7 10 - - 0.0
23/12:20pm 20.3 18.5 13.4 64 4.1 ESE 15 19 8 10 - - 0.0
23/12:10pm 19.7 18.0 13.6 68 3.6 ESE 15 24 8 13 - - 0.0
23/12:00pm 20.5 18.9 14.0 66 3.9 ESE 15 17 8 9 - - 0.0
23/11:50am 20.6 19.5 14.2 66 3.9 ESE 13 20 7 11 - - 0.0
23/11:40am 20.3 19.2 14.2 68 3.7 ESE 13 20 7 11 - - 0.0
23/11:30am 20.8 19.7 14.2 66 4.0 SE 13 19 7 10 - - 0.0
23/11:20am 20.7 19.5 13.9 65 4.1 ESE 13 17 7 9 - - 0.0
23/11:10am 20.5 18.0 13.4 63 4.2 E 19 22 10 12 - - 0.0
23/11:00am 20.9 18.5 13.8 64 4.3 E 19 24 10 13 - - 0.0
23/10:50am 20.8 18.6 14.4 67 3.9 E 19 24 10 13 - - 0.0
23/10:40am 20.5 18.0 14.1 66 3.9 E 20 26 11 14 - - 0.0
23/10:30am 20.9 18.6 14.6 67 3.8 E 20 26 11 14 - - 0.0
23/10:20am 20.9 18.4 14.2 65 4.1 E 20 22 11 12 - - 0.0
23/10:10am 19.6 17.3 13.1 66 3.8 E 17 26 9 14 - - 0.0
23/10:00am 19.3 17.0 14.2 72 3.1 E 19 22 10 12 - - 0.0
23/09:50am 18.9 16.9 13.9 73 3.0 E 17 24 9 13 - - 0.0
23/09:40am 18.4 16.8 13.8 74 2.7 E 15 22 8 12 - - 0.0
23/09:30am 18.3 15.7 13.8 75 2.7 E 20 26 11 14 - - 0.0
23/09:20am 18.7 17.4 13.7 72 3.0 ESE 13 19 7 10 - - 0.0
23/09:10am 17.7 15.6 13.7 77 2.4 ESE 17 22 9 12 - - 0.0
23/09:00am 17.4 15.3 13.7 79 2.2 E 17 22 9 12 - - 0.0
23/08:50am 17.1 14.5 13.7 80 2.0 E 20 26 11 14 - - 0.0
23/08:40am 16.9 14.5 13.9 82 1.8 E 19 26 10 14 - - 0.0
23/08:30am 16.7 14.1 13.8 83 1.7 E 20 26 11 14 - - 0.0
23/08:20am 16.6 13.6 13.7 83 1.7 - 22 28 12 15 - - 0.0
23/08:10am 16.3 13.5 13.2 82 1.8 E 20 35 11 19 - - 0.0
23/08:00am 16.1 12.7 13.7 86 1.4 E 24 28 13 15 - - 0.0
23/07:50am 16.1 13.4 13.5 84 1.5 E 20 22 11 12 - - 0.0
23/07:40am 15.7 13.1 13.7 88 1.2 E 20 24 11 13 - - 0.0
23/07:30am 15.6 14.6 14.5 93 0.7 E 13 19 7 10 - - 0.0
23/07:20am 15.6 14.6 14.5 93 0.7 E 13 19 7 10 - - 0.0
23/07:10am 15.5 14.1 14.4 93 0.7 E 15 24 8 13 - - 0.0
23/07:00am 15.5 13.7 14.4 93 0.7 E 17 22 9 12 - - 0.0
23/06:50am 15.4 13.9 14.3 93 0.7 E 15 24 8 13 - - 0.0
23/06:40am 15.2 14.0 14.0 92 0.7 E 13 17 7 9 - - 0.0
23/06:30am 15.2 14.3 13.6 90 0.9 E 11 13 6 7 - - 0.0
23/06:20am 15.0 13.2 13.4 90 0.9 E 15 19 8 10 - - 0.0
23/06:10am 14.9 13.5 13.3 90 0.9 E 13 17 7 9 - - 0.0
23/06:00am 14.8 13.0 13.2 90 0.9 E 15 19 8 10 - - 0.0
23/05:50am 14.8 13.0 13.2 90 0.9 E 15 22 8 12 - - 0.0
23/05:40am 14.7 13.2 13.0 89 1.0 E 13 17 7 9 - - 0.0
23/05:30am 14.4 13.2 12.7 89 1.0 - 11 15 6 8 - - 0.0
23/05:20am 14.4 13.1 12.6 89 1.0 E 11 13 6 7 - - 0.0
23/05:10am 14.5 12.5 12.6 88 1.1 E 15 17 8 9 - - 0.0
23/05:00am 14.5 13.6 12.6 88 1.1 E 9 15 5 8 - - 0.0
23/04:50am 14.8 13.2 12.9 88 1.1 E 13 15 7 8 - - 0.0
23/04:40am 15.0 13.5 13.1 88 1.1 E 13 17 7 9 - - 0.0
23/04:30am 15.2 13.4 13.2 88 1.2 E 15 19 8 10 - - 0.0
23/04:20am 15.3 14.3 13.5 89 1.1 - 11 17 6 9 - - 0.0
23/04:10am 15.4 13.3 13.7 90 1.0 - 17 20 9 11 - - 0.0
23/04:00am 15.3 13.6 13.7 90 0.9 E 15 20 8 11 - - 0.0
23/03:50am 15.3 14.7 13.6 90 1.0 E 9 11 5 6 - - 0.0
23/03:40am 15.1 13.7 13.4 89 1.0 E 13 17 7 9 - - 0.0
23/03:30am 15.0 14.0 13.4 90 0.9 E 11 13 6 7 - - 0.0
23/03:20am 15.1 13.7 13.5 90 0.9 - 13 22 7 12 - - 0.0
23/03:10am 15.1 14.5 13.5 90 0.9 E 9 13 5 7 - - 0.0
23/03:00am 15.2 14.6 13.4 89 1.0 E 9 17 5 9 - - 0.0
23/02:50am 15.3 14.4 13.6 90 1.0 E 11 15 6 8 - - 0.0
23/02:40am 15.1 14.1 13.5 90 0.9 E 11 15 6 8 - - 0.0
23/02:30am 14.8 14.1 13.1 89 1.0 E 9 13 5 7 - - 0.0
23/02:20am 14.8 13.7 13.0 89 1.0 E 11 13 6 7 - - 0.0
23/02:10am 15.0 13.9 13.2 89 1.0 E 11 15 6 8 - - 0.0
23/02:00am 15.0 13.6 13.3 89 1.0 E 13 15 7 8 - - 0.0
23/01:50am 14.9 13.9 13.3 90 0.9 E 11 19 6 10 - - 0.0
23/01:40am 14.9 14.3 13.4 91 0.9 E 9 13 5 7 - - 0.0
23/01:30am 14.9 13.9 13.4 91 0.9 E 11 13 6 7 - - 0.0
23/01:20am 14.9 14.6 13.4 91 0.9 E 7 11 4 6 - - 0.0
23/01:10am 14.8 13.8 13.3 91 0.9 E 11 15 6 8 - - 0.0
23/01:00am 14.7 13.6 13.1 90 0.9 E 11 17 6 9 - - 0.0
23/12:50am 14.8 13.7 13.2 90 0.9 E 11 17 6 9 - - 0.0
23/12:40am 14.5 13.7 12.9 90 0.9 E 9 13 5 7 - - 0.0
23/12:30am 14.5 14.0 12.5 88 1.1 E 7 9 4 5 - - 0.0
23/12:20am 14.6 14.1 12.7 88 1.1 E 7 9 4 5 - - 0.0
23/12:10am 14.8 14.0 13.0 89 1.0 E 9 11 5 6 - - 0.0
23/12:00am 15.0 14.0 13.4 90 0.9 E 11 11 6 6 - - 0.0
 
Date/Time
EST
Temp
°C
App
Temp
°C
Dew
Point
°C
Rel
Hum
%
Delta-T
°C
Wind Press
QNH
hPa
Press
MSL
hPa
Rain since
9am
mm
Dir  Spd
km/h
Gust
km/h
Spd
kts
Gust
kts
22/11:50pm 14.9 13.9 13.4 91 0.9 E 11 13 6 7 - - 0.0
22/11:40pm 14.9 13.9 13.3 90 0.9 E 11 13 6 7 - - 0.0
22/11:30pm 14.9 13.8 13.1 89 1.0 E 11 15 6 8 - - 0.0
22/11:20pm 15.0 13.9 13.1 88 1.1 E 11 15 6 8 - - 0.0
22/11:10pm 15.3 14.2 13.2 87 1.2 E 11 13 6 7 - - 0.0
22/11:00pm 15.4 14.4 13.4 88 1.2 E 11 15 6 8 - - 0.0
22/10:50pm 15.5 14.1 13.4 87 1.2 E 13 17 7 9 - - 0.0
22/10:40pm 15.5 13.7 13.4 87 1.2 E 15 19 8 10 - - 0.0
22/10:30pm 15.5 14.5 13.4 87 1.2 E 11 15 6 8 - - 0.0
22/10:20pm 15.7 14.8 13.7 88 1.2 E 11 17 6 9 - - 0.0
22/10:10pm 15.7 14.4 13.7 88 1.2 E 13 15 7 8 - - 0.0
22/10:00pm 15.7 15.1 13.6 87 1.2 E 9 13 5 7 - - 0.0
22/09:50pm 15.9 14.6 13.7 87 1.3 E 13 17 7 9 - - 0.0
22/09:40pm 15.9 14.3 13.8 87 1.2 E 15 19 8 10 - - 0.0
22/09:30pm 15.8 14.9 13.7 87 1.2 E 11 15 6 8 - - 0.0
22/09:20pm 15.8 15.2 13.6 87 1.3 ESE 9 11 5 6 - - 0.0
22/09:10pm 15.8 15.2 13.6 87 1.3 ESE 9 9 5 5 - - 0.0
22/09:00pm 15.9 15.3 13.6 86 1.4 ESE 9 13 5 7 - - 0.0
22/08:50pm 15.8 15.6 13.6 87 1.3 E 7 13 4 7 - - 0.0
22/08:40pm 15.7 15.2 13.7 88 1.2 E 9 11 5 6 - - 0.0
22/08:30pm 15.7 15.6 13.8 88 1.1 E 7 13 4 7 - - 0.0
22/08:20pm 15.5 15.5 13.6 88 1.1 E 6 9 3 5 - - 0.0
22/08:10pm 15.2 15.1 13.4 89 1.0 E 6 9 3 5 - - 0.0
22/08:00pm 15.1 15.0 13.3 89 1.0 E 6 7 3 4 - - 0.0
22/07:50pm 14.9 14.6 13.2 89 1.0 E 7 9 4 5 - - 0.0
22/07:40pm 14.8 14.6 12.9 88 1.1 ENE 6 7 3 4 - - 0.0
22/07:30pm 15.1 15.2 12.8 86 1.3 ENE 4 6 2 3 - - 0.0
22/07:20pm 15.4 15.0 12.9 85 1.4 E 7 9 4 5 - - 0.0
22/07:10pm 15.6 15.3 13.2 86 1.4 E 7 9 4 5 - - 0.0
22/07:00pm 15.5 15.3 13.1 85 1.4 ENE 6 7 3 4 - - 0.0
22/06:50pm 15.7 14.9 13.0 84 1.6 E 9 11 5 6 - - 0.0
22/06:40pm 16.0 14.4 12.9 82 1.8 E 13 17 7 9 - - 0.0
22/06:30pm 16.2 15.5 13.1 82 1.8 E 9 15 5 8 - - 0.0
22/06:20pm 16.5 15.9 13.5 82 1.8 E 9 11 5 6 - - 0.0
22/06:10pm 16.9 15.8 13.2 79 2.2 E 11 13 6 7 - - 0.0
22/06:00pm 17.6 17.2 12.9 74 2.7 ESE 7 11 4 6 - - 0.0
22/05:50pm 17.6 16.9 12.1 70 3.2 E 7 9 4 5 - - 0.0
22/05:40pm 17.6 16.1 11.9 69 3.3 E 11 17 6 9 - - 0.0
22/05:30pm 18.2 16.0 12.1 67 3.5 E 15 19 8 10 - - 0.0
22/05:20pm 19.1 17.4 12.3 64 4.0 E 13 17 7 9 - - 0.0
22/05:10pm 19.2 17.6 11.5 61 4.4 ESE 11 15 6 8 - - 0.0
22/05:00pm 18.8 16.4 11.4 62 4.2 E 15 17 8 9 - - 0.0
22/04:50pm 19.3 17.3 11.4 60 4.5 E 13 15 7 8 - - 0.0
22/04:40pm 19.7 17.6 11.3 58 4.8 E 13 17 7 9 - - 0.0
22/04:30pm 19.9 17.9 11.4 58 4.9 E 13 17 7 9 - - 0.0
22/04:20pm 20.4 18.7 11.2 55 5.3 ESE 11 13 6 7 - - 0.0
22/04:10pm 20.6 18.8 10.9 53 5.6 ESE 11 17 6 9 - - 0.0
22/04:00pm 20.5 18.3 10.8 53 5.5 E 13 19 7 10 - - 0.0
22/03:50pm 20.6 18.0 10.6 52 5.7 ESE 15 19 8 10 - - 0.0
22/03:40pm 21.2 19.4 10.7 51 6.0 E 11 17 6 9 - - 0.0
22/03:30pm 20.6 18.7 10.6 52 5.7 ESE 11 17 6 9 - - 0.0
22/03:20pm 20.6 17.4 11.1 54 5.5 E 19 26 10 14 - - 0.0
22/03:10pm 21.5 19.4 11.2 52 5.9 E 13 17 7 9 - - 0.0
22/03:00pm 21.9 19.8 11.3 51 6.1 ESE 13 15 7 8 - - 0.0
22/02:50pm 21.8 19.4 11.4 51 6.0 ESE 15 20 8 11 - - 0.0
22/02:40pm 21.6 19.0 10.8 50 6.2 ESE 15 20 8 11 - - 0.0
22/02:30pm 21.5 19.8 11.3 52 5.9 SE 11 17 6 9 - - 0.0
22/02:20pm 21.7 19.1 10.8 50 6.3 E 15 17 8 9 - - 0.0
22/02:10pm 21.3 19.3 11.6 54 5.6 ESE 13 17 7 9 - - 0.0
22/02:00pm 21.0 18.6 11.5 54 5.5 ESE 15 19 8 10 - - 0.0
22/01:50pm 21.2 19.2 12.7 58 5.0 E 15 19 8 10 - - 0.0
22/01:40pm 21.2 18.9 11.7 54 5.5 ESE 15 24 8 13 - - 0.0
22/01:30pm 21.1 18.7 11.3 53 5.7 E 15 22 8 12 - - 0.0
22/01:20pm 21.2 18.5 11.6 54 5.6 ESE 17 22 9 12 - - 0.0
22/01:10pm 21.0 19.0 11.5 54 5.5 ESE 13 19 7 10 - - 0.0
22/01:00pm 21.0 18.5 12.4 58 5.1 ESE 17 20 9 11 - - 0.0
22/12:50pm 21.2 19.1 12.4 57 5.2 ESE 15 20 8 11 - - 0.0
22/12:40pm 21.2 19.5 12.6 58 5.1 ESE 13 19 7 10 - - 0.0
22/12:30pm 20.2 18.5 12.5 61 4.5 ESE 13 20 7 11 - - 0.0
22/12:20pm 20.9 19.2 12.4 58 5.0 ESE 13 17 7 9 - - 0.0
22/12:00pm 20.4 17.4 12.0 58 4.9 E 19 26 10 14 - - 0.0
22/11:50am 21.8 18.7 12.3 54 5.6 E 20 22 11 12 - - 0.0
22/11:40am 21.5 18.3 11.9 54 5.6 E 20 26 11 14 - - 0.0
22/11:30am 21.2 18.1 12.2 56 5.3 E 20 28 11 15 - - 0.0
22/11:20am 21.1 17.7 11.4 54 5.6 - 20 26 11 14 - - 0.0
22/11:10am 20.1 17.2 12.3 61 4.6 E 19 22 10 12 - - 0.0
22/11:00am 20.3 17.2 12.3 60 4.7 E 20 24 11 13 - - 0.0
22/10:50am 20.4 17.4 12.1 59 4.8 E 19 24 10 13 - - 0.0
22/10:40am 19.9 15.9 11.9 60 4.6 E 24 26 13 14 - - 0.0
22/10:30am 19.9 16.4 12.3 61 4.4 E 22 28 12 15 - - 0.0
22/10:20am 20.1 17.0 12.3 61 4.6 E 20 26 11 14 - - 0.0
22/10:10am 18.9 16.5 12.7 67 3.6 E 17 24 9 13 - - 0.0
22/10:00am 18.4 15.4 12.7 69 3.3 E 20 26 11 14 - - 0.0
22/09:50am 18.6 15.9 12.9 69 3.3 E 19 22 10 12 - - 0.0
22/09:40am 18.3 15.5 12.6 69 3.3 E 19 22 10 12 - - 0.0
22/09:30am 18.2 15.4 12.7 70 3.2 ESE 19 22 10 12 - - 0.0
22/09:20am 18.7 16.4 13.1 70 3.3 E 17 22 9 12 - - 0.0
22/09:10am 18.3 15.4 12.9 71 3.2 E 20 28 11 15 - - 0.0
22/09:00am 17.8 14.6 13.1 74 2.8 E 22 28 12 15 - - 0.0
22/08:50am 17.1 13.9 13.0 77 2.4 E 22 28 12 15 - - 0.0
22/08:40am 16.3 13.9 13.7 84 1.5 E 19 22 10 12 - - 0.0
22/08:30am 15.7 13.3 13.8 88 1.1 E 19 24 10 13 - - 0.0
22/08:20am 16.1 14.0 13.6 85 1.5 E 17 28 9 15 - - 0.0
22/08:10am 16.1 14.0 13.5 84 1.5 E 17 22 9 12 - - 0.0
22/08:00am 16.4 13.6 13.3 82 1.8 E 20 28 11 15 - - 0.0
22/07:50am 16.2 13.4 13.3 83 1.7 E 20 22 11 12 - - 0.0
22/07:40am 15.7 13.5 13.2 85 1.5 E 17 26 9 14 - - 0.0
22/07:30am 15.5 14.0 13.2 86 1.3 E 13 20 7 11 - - 0.0
22/07:20am 15.5 12.8 13.0 85 1.4 E 19 22 10 12 - - 0.0
22/07:10am 15.2 13.2 12.8 85 1.4 E 15 19 8 10 - - 0.0
22/07:00am 14.6 12.6 12.7 88 1.1 E 15 19 8 10 - - 0.0
22/06:50am 14.5 12.1 12.6 88 1.1 E 17 20 9 11 - - 0.0
22/06:40am 14.2 12.5 12.5 89 1.0 E 13 19 7 10 - - 0.0
22/06:30am 14.0 11.9 12.4 90 0.9 E 15 17 8 9 - - 0.0
22/06:20am 14.0 12.3 12.3 89 1.0 E 13 22 7 12 - - 0.0
22/06:10am 14.0 12.2 12.1 88 1.1 E 13 17 7 9 - - 0.0
22/06:00am 14.0 11.8 12.0 88 1.1 E 15 19 8 10 - - 0.0
22/05:50am 13.9 11.7 12.1 89 1.0 E 15 20 8 11 - - 0.0
22/05:40am 13.9 12.1 12.1 89 1.0 E 13 15 7 8 - - 0.0
22/05:30am 13.8 12.4 12.1 89 1.0 E 11 15 6 8 - - 0.0
22/05:20am 14.0 11.8 12.1 88 1.1 E 15 20 8 11 - - 0.0
22/05:10am 14.0 11.8 12.2 89 1.0 E 15 17 8 9 - - 0.0
22/05:00am 14.0 11.8 12.1 88 1.1 E 15 20 8 11 - - 0.0
22/04:50am 14.1 11.5 12.0 87 1.2 E 17 22 9 12 - - 0.0
22/04:40am 14.2 11.7 12.2 88 1.1 E 17 22 9 12 - - 0.0
22/04:30am 14.3 11.4 12.3 88 1.1 E 19 24 10 13 - - 0.0
22/04:20am 14.2 12.1 12.4 89 1.0 E 15 19 8 10 - - 0.0
22/04:10am 14.2 12.5 12.4 89 1.0 E 13 19 7 10 - - 0.0
22/04:00am 14.3 12.2 12.4 88 1.1 E 15 19 8 10 - - 0.0
22/03:50am 14.3 12.2 12.4 88 1.1 E 15 20 8 11 - - 0.0
22/03:40am 14.2 12.5 12.3 88 1.1 E 13 17 7 9 - - 0.0
22/03:30am 14.2 12.4 12.2 88 1.1 E 13 19 7 10 - - 0.0
22/03:20am 14.2 12.4 12.1 87 1.2 E 13 17 7 9 - - 0.0
22/03:10am 14.3 12.1 12.2 87 1.2 E 15 19 8 10 - - 0.0
22/03:00am 14.5 12.3 12.2 86 1.3 E 15 20 8 11 - - 0.0
22/02:50am 14.5 12.9 12.7 89 1.0 E 13 19 7 10 - - 0.0
22/02:40am 14.5 12.8 12.6 88 1.1 E 13 15 7 8 - - 0.0
22/02:30am 14.5 12.1 12.8 89 1.0 E 17 22 9 12 - - 0.0
22/02:20am 14.6 11.9 12.8 89 1.0 E 19 22 10 12 - - 0.0
22/02:10am 14.6 11.9 12.8 89 1.0 E 19 22 10 12 - - 0.0
22/02:00am 14.7 12.8 12.9 89 1.0 E 15 17 8 9 - - 0.0
22/01:50am 14.8 12.9 13.0 89 1.0 E 15 17 8 9 - - 0.0
22/01:40am 15.0 13.2 13.2 89 1.0 E 15 20 8 11 - - 0.0
22/01:30am 14.9 12.7 13.2 89 1.0 E 17 20 9 11 - - 0.0
22/01:20am 14.7 12.8 12.9 89 1.0 E 15 17 8 9 - - 0.0
22/01:10am 14.7 12.7 12.7 88 1.1 E 15 17 8 9 - - 0.0
22/01:00am 14.7 13.1 12.8 88 1.1 E 13 20 7 11 - - 0.0
22/12:50am 14.8 12.8 12.8 88 1.2 E 15 19 8 10 - - 0.0
22/12:40am 14.9 12.5 12.8 87 1.2 E 17 19 9 10 - - 0.0
22/12:30am 15.1 13.4 13.5 90 0.9 E 15 17 8 9 - - 0.0
22/12:20am 15.2 13.4 13.4 89 1.0 E 15 20 8 11 - - 0.0
22/12:10am 15.2 13.0 13.3 88 1.1 E 17 19 9 10 - - 0.0
22/12:00am 15.1 13.6 13.1 88 1.2 E 13 19 7 10 - - 0.0
 
Date/Time
EST
Temp
°C
App
Temp
°C
Dew
Point
°C
Rel
Hum
%
Delta-T
°C
Wind Press
QNH
hPa
Press
MSL
hPa
Rain since
9am
mm
Dir  Spd
km/h
Gust
km/h
Spd
kts
Gust
kts
21/11:50pm 15.1 13.2 12.9 87 1.3 E 15 19 8 10 - - 0.0
21/11:40pm 15.0 13.5 13.0 88 1.2 E 13 19 7 10 - - 0.0
21/11:30pm 15.1 13.6 13.1 88 1.2 E 13 17 7 9 - - 0.0
21/11:20pm 15.2 13.4 13.2 88 1.2 E 15 20 8 11 - - 0.0
21/11:00pm 15.1 13.2 12.9 87 1.3 E 15 20 8 11 - - 0.0
21/10:50pm 15.3 12.9 12.8 85 1.4 E 17 20 9 11 - - 0.0
21/10:40pm 15.3 13.9 13.4 88 1.1 E 13 17 7 9 - - 0.0
21/10:30pm 15.2 13.4 13.3 88 1.1 E 15 22 8 12 - - 0.0
21/10:20pm 15.1 13.7 13.3 89 1.0 E 13 17 7 9 - - 0.0
21/10:10pm 15.2 13.4 13.3 88 1.1 E 15 19 8 10 - - 0.0
21/10:00pm 15.2 13.9 13.6 90 0.9 E 13 15 7 8 - - 0.0
21/09:50pm 15.3 14.1 13.9 91 0.8 E 13 19 7 10 - - 0.0
21/09:40pm 15.3 13.7 14.0 92 0.8 E 15 19 8 10 - - 0.0
21/09:30pm 15.3 14.0 13.8 91 0.9 E 13 17 7 9 - - 0.0
21/09:20pm 15.3 14.8 13.8 91 0.9 E 9 13 5 7 - - 0.0
21/09:10pm 15.2 14.7 13.7 91 0.9 E 9 13 5 7 - - 0.0
21/09:00pm 15.4 14.1 13.8 90 0.9 E 13 15 7 8 - - 0.0
21/08:50pm 15.5 13.9 13.8 90 1.0 E 15 17 8 9 - - 0.0
21/08:40pm 15.7 14.5 13.9 89 1.1 E 13 17 7 9 - - 0.0
21/08:30pm 15.7 14.0 13.5 87 1.3 E 15 22 8 12 - - 0.0
21/08:20pm 15.7 14.7 13.4 86 1.3 E 11 17 6 9 - - 0.0
21/08:10pm 15.7 15.0 13.3 86 1.4 E 9 11 5 6 - - 0.0
21/08:00pm 15.8 14.8 13.3 85 1.5 E 11 15 6 8 - - 0.0
21/07:50pm 16.0 15.4 13.4 84 1.5 E 9 13 5 7 - - 0.0
21/07:40pm 16.1 16.5 13.8 86 1.4 ENE 4 7 2 4 - - 0.0
21/07:30pm 16.2 16.2 13.7 85 1.5 E 6 7 3 4 - - 0.0
21/07:20pm 16.2 15.6 13.6 84 1.5 E 9 13 5 7 - - 0.0
21/07:10pm 16.1 15.9 13.7 86 1.4 E 7 11 4 6 - - 0.0
21/07:00pm 16.1 15.9 13.7 86 1.4 E 7 11 4 6 - - 0.0
21/06:50pm 16.2 16.1 13.9 86 1.4 E 7 11 4 6 - - 0.0
21/06:40pm 16.3 16.2 14.0 86 1.4 E 7 9 4 5 - - 0.0
21/06:30pm 16.3 15.5 13.9 86 1.4 E 11 13 6 7 - - 0.0
21/06:20pm 16.5 16.4 13.9 84 1.5 E 7 11 4 6 - - 0.0
21/06:10pm 16.7 16.2 13.7 82 1.8 E 9 15 5 8 - - 0.0
21/06:00pm 16.9 15.6 13.7 81 1.9 E 13 17 7 9 - - 0.0
21/05:50pm 17.2 15.1 13.7 80 2.1 E 17 19 9 10 - - 0.0
21/05:40pm 18.0 16.4 13.9 77 2.4 E 15 17 8 9 - - 0.0
21/05:30pm 17.9 17.0 13.7 76 2.5 E 11 15 6 8 - - 0.0
21/05:20pm 17.9 16.2 13.5 75 2.6 E 15 15 8 8 - - 0.0
21/05:10pm 18.6 16.4 13.3 71 3.1 E 17 20 9 11 - - 0.0
21/05:00pm 18.9 17.1 13.2 69 3.4 E 15 19 8 10 - - 0.0
21/04:50pm 19.6 18.0 12.7 64 4.1 E 13 17 7 9 - - 0.0
21/04:40pm 19.7 18.0 12.3 62 4.3 E 13 19 7 10 - - 0.0
21/04:30pm 20.3 18.0 11.9 58 4.9 E 15 17 8 9 - - 0.0
21/04:20pm 19.6 17.0 11.9 61 4.5 E 17 19 9 10 - - 0.0
21/04:00pm 20.2 17.7 11.2 56 5.2 E 15 19 8 10 - - 0.0
21/03:50pm 20.0 17.8 12.1 60 4.6 E 15 19 8 10 - - 0.0
21/03:40pm 21.0 18.7 11.9 56 5.3 E 15 20 8 11 - - 0.0
21/03:30pm 21.0 18.7 11.9 56 5.3 E 15 22 8 12 - - 0.0
21/03:20pm 21.1 18.2 10.9 52 5.9 E 17 22 9 12 - - 0.0
21/03:10pm 20.7 18.1 12.1 58 5.0 E 17 19 9 10 - - 0.0
21/03:00pm 20.3 17.1 11.4 56 5.1 E 19 22 10 12 - - 0.0
21/02:50pm 20.9 18.8 12.3 58 5.0 E 15 22 8 12 - - 0.0
21/02:40pm 21.6 20.0 11.7 53 5.8 ESE 11 15 6 8 - - 0.0
21/02:30pm 20.7 18.3 11.5 55 5.3 E 15 20 8 11 - - 0.0
21/02:20pm 20.9 18.1 11.2 54 5.6 E 17 20 9 11 - - 0.0
21/02:10pm 21.2 18.5 11.7 54 5.5 E 17 20 9 11 - - 0.0
21/02:00pm 21.2 17.9 10.9 51 5.9 E 19 22 10 12 - - 0.0
21/01:50pm 21.7 19.5 10.8 50 6.3 E 13 20 7 11 - - 0.0
21/01:40pm 20.8 17.4 11.3 54 5.5 E 20 24 11 13 - - 0.0
21/01:30pm 21.3 18.5 11.3 53 5.8 E 17 26 9 14 - - 0.0
21/01:20pm 21.8 18.4 10.7 49 6.4 E 19 24 10 13 - - 0.0
21/01:10pm 21.9 18.2 10.1 47 6.7 E 20 26 11 14 - - 0.0
21/01:00pm 22.0 19.2 9.9 46 6.8 ESE 15 19 8 10 - - 0.0
21/12:50pm 21.7 18.0 9.6 46 6.8 E 19 28 10 15 - - 0.0
21/12:40pm 21.7 18.2 8.9 44 7.1 ESE 17 20 9 11 - - 0.0
21/12:30pm 21.6 18.6 10.6 49 6.3 E 17 22 9 12 - - 0.0
21/12:20pm 21.2 17.9 10.8 51 6.0 E 19 24 10 13 - - 0.0
21/12:10pm 21.1 18.2 10.9 52 5.9 E 17 22 9 12 - - 0.0
21/12:00pm 21.3 18.9 11.4 53 5.7 E 15 17 8 9 - - 0.0
21/11:50am 21.0 18.0 11.8 55 5.4 E 19 22 10 12 - - 0.0
21/11:40am 21.2 18.1 11.5 54 5.6 E 19 26 10 14 - - 0.0
21/11:30am 20.7 17.6 11.5 55 5.3 E 19 26 10 14 - - 0.0
21/11:20am 20.7 17.6 11.6 56 5.3 E 19 24 10 13 - - 0.0
21/11:10am 20.5 17.7 12.5 60 4.7 E 19 24 10 13 - - 0.0
21/11:00am 20.3 17.8 12.4 60 4.6 E 17 19 9 10 - - 0.0
21/10:50am 19.9 16.9 11.9 60 4.6 E 19 22 10 12 - - 0.0
21/10:40am 20.0 16.8 11.9 59 4.7 E 20 24 11 13 - - 0.0
21/10:30am 20.0 17.1 12.4 61 4.5 E 19 22 10 12 - - 0.0
21/10:20am 19.5 16.4 12.1 62 4.3 E 20 26 11 14 - - 0.0
21/10:10am 19.2 15.6 11.7 62 4.3 E 22 26 12 14 - - 0.0
21/10:00am 19.2 15.5 11.5 61 4.4 E 22 24 12 13 - - 0.0
21/09:50am 18.8 15.4 12.4 66 3.7 E 22 26 12 14 - - 0.0
21/09:40am 18.7 15.2 12.3 66 3.7 E 22 28 12 15 - - 0.0
21/09:30am 18.3 14.9 12.4 68 3.4 E 22 26 12 14 - - 0.0
21/09:20am 18.0 14.4 12.9 72 3.0 E 24 28 13 15 - - 0.0
21/09:10am 17.9 14.8 13.3 74 2.7 E 22 26 12 14 - - 0.0
21/09:00am 17.5 14.5 13.7 78 2.3 E 22 26 12 14 - - 0.0
21/08:50am 16.7 14.0 13.6 82 1.8 E 20 22 11 12 - - 0.0
21/08:40am 17.2 14.2 13.6 79 2.1 E 22 26 12 14 - - 0.0
21/08:30am 17.1 13.9 13.2 78 2.3 E 22 26 12 14 - - 0.0
21/08:20am 16.7 13.6 13.5 81 1.9 E 22 26 12 14 - - 0.0
21/08:00am 15.8 13.1 13.5 86 1.3 E 20 24 11 13 - - 0.0
21/07:50am 15.7 13.0 13.6 87 1.2 E 20 24 11 13 - - 0.0
21/07:40am 15.4 12.9 13.5 88 1.1 E 19 22 10 12 - - 0.0
21/07:30am 15.4 12.7 13.5 88 1.1 E 20 26 11 14 - - 0.0
21/07:20am 15.4 12.7 13.4 88 1.2 E 20 22 11 12 - - 0.0
21/07:10am 15.2 13.0 13.4 89 1.0 E 17 22 9 12 - - 0.0
21/07:00am 14.8 12.6 13.4 91 0.8 E 17 20 9 11 - - 0.0
21/06:50am 14.7 12.9 13.3 91 0.8 E 15 17 8 9 - - 0.0
21/06:40am 14.6 12.8 13.4 92 0.7 E 15 19 8 10 - - 0.0
21/06:30am 14.5 12.7 13.2 92 0.8 E 15 19 8 10 - - 0.0
21/06:20am 14.5 13.0 13.1 91 0.8 E 13 15 7 8 - - 0.0
21/06:10am 14.5 13.0 13.1 91 0.8 E 13 15 7 8 - - 0.0
21/06:00am 14.5 12.6 13.0 91 0.9 E 15 17 8 9 - - 0.0
21/05:50am 14.6 12.7 13.1 91 0.9 E 15 19 8 10 - - 0.0
21/05:40am 14.7 12.5 13.3 91 0.8 E 17 20 9 11 - - 0.0
21/05:30am 14.7 13.0 13.5 92 0.7 E 15 19 8 10 - - 0.0
21/05:20am 14.6 12.8 13.3 92 0.8 E 15 19 8 10 - - 0.0
21/05:10am 14.8 13.1 13.5 92 0.8 E 15 20 8 11 - - 0.0
21/05:00am 14.6 12.8 13.4 92 0.7 E 15 19 8 10 - - 0.0
21/04:50am 14.6 13.1 13.2 91 0.8 E 13 17 7 9 - - 0.0
21/04:40am 14.7 12.9 13.3 91 0.8 E 15 17 8 9 - - 0.0
21/04:30am 14.6 13.2 13.3 92 0.8 E 13 15 7 8 - - 0.0
21/04:20am 14.5 13.0 13.1 91 0.8 E 13 17 7 9 - - 0.0
21/04:10am 14.4 13.2 12.9 91 0.9 ENE 11 17 6 9 - - 0.0
21/04:00am 14.2 12.9 12.6 90 0.9 E 11 15 6 8 - - 0.0
21/03:50am 14.5 12.6 13.0 91 0.9 E 15 19 8 10 - - 0.0
21/03:40am 14.7 12.9 13.2 91 0.9 E 15 17 8 9 - - 0.0
21/03:30am 14.5 12.6 13.0 91 0.9 E 15 19 8 10 - - 0.0
21/03:20am 14.5 12.1 12.8 89 1.0 E 17 20 9 11 - - 0.0
21/03:10am 14.6 12.4 13.3 92 0.8 E 17 26 9 14 - - 0.0
21/03:00am 14.9 12.9 13.9 94 0.6 E 17 19 9 10 - - 0.0
21/02:50am 15.1 13.6 14.2 94 0.5 E 15 22 8 12 - - 0.0
21/02:40am 15.1 14.0 14.3 95 0.5 E 13 17 7 9 - - 0.0
21/02:30am 15.2 13.7 14.3 94 0.5 E 15 20 8 11 - - 0.0
21/02:20am 15.3 13.4 14.3 94 0.6 E 17 20 9 11 - - 0.0
21/02:10am 15.4 14.0 14.4 94 0.6 E 15 19 8 10 - - 0.0
21/02:00am 15.4 13.9 14.3 93 0.7 E 15 19 8 10 - - 0.0
21/01:50am 15.6 14.6 14.6 94 0.6 E 13 15 7 8 - - 0.0
21/01:40am 15.6 15.0 14.6 94 0.6 E 11 15 6 8 - - 0.0
21/01:30am 15.6 15.0 14.6 94 0.6 E 11 17 6 9 - - 0.0
21/01:20am 15.6 15.0 14.6 94 0.6 E 11 17 6 9 - - 0.0
21/01:10am 15.6 14.6 14.5 93 0.7 E 13 15 7 8 - - 0.0
21/01:00am 15.5 14.8 14.3 92 0.7 E 11 13 6 7 - - 0.0
21/12:50am 15.3 13.7 14.0 92 0.8 E 15 17 8 9 - - 0.0
21/12:40am 15.0 14.1 13.6 91 0.8 E 11 15 6 8 - - 0.0
21/12:30am 15.2 14.3 13.8 91 0.8 E 11 17 6 9 - - 0.0
21/12:20am 15.4 13.9 14.2 92 0.7 E 15 22 8 12 - - 0.0
21/12:10am 15.4 13.9 14.2 92 0.7 E 15 19 8 10 - - 0.0
21/12:00am 15.4 13.1 14.2 92 0.7 E 19 20 10 11 - - 0.0
 
Date/Time
EST
Temp
°C
App
Temp
°C
Dew
Point
°C
Rel
Hum
%
Delta-T
°C
Wind Press
QNH
hPa
Press
MSL
hPa
Rain since
9am
mm
Dir  Spd
km/h
Gust
km/h
Spd
kts
Gust
kts
20/11:50pm 15.5 14.4 14.4 93 0.7 E 13 17 7 9 - - 0.0
20/11:40pm 15.5 14.1 14.4 93 0.7 E 15 20 8 11 - - 0.0
20/11:30pm 15.5 14.4 14.4 93 0.7 E 13 19 7 10 - - 0.0
20/11:20pm 15.4 13.9 14.2 92 0.7 E 15 19 8 10 - - 0.0
20/11:10pm 15.2 14.0 13.9 92 0.8 E 13 17 7 9 - - 0.0
20/11:00pm 15.1 13.4 13.7 91 0.8 E 15 17 8 9 - - 0.0
20/10:50pm 15.2 13.6 13.8 91 0.8 E 15 19 8 10 - - 0.0
20/10:40pm 15.2 13.2 13.8 91 0.8 E 17 20 9 11 - - 0.0
20/10:30pm 15.2 13.9 13.7 91 0.9 E 13 17 7 9 - - 0.0
20/10:20pm 15.3 14.0 13.8 91 0.9 E 13 19 7 10 - - 0.0
20/10:10pm 15.2 13.9 13.7 91 0.9 E 13 15 7 8 - - 0.0
20/10:00pm 15.2 13.9 13.6 90 0.9 E 13 17 7 9 - - 0.0
20/09:50pm 15.0 14.0 13.5 91 0.9 E 11 17 6 9 - - 0.0
20/09:40pm 14.9 14.6 13.4 91 0.9 E 7 11 4 6 - - 0.0
20/09:30pm 14.9 14.6 13.3 90 0.9 E 7 9 4 5 - - 0.0
20/09:20pm 15.0 14.7 13.3 89 1.0 ENE 7 9 4 5 - - 0.0
20/09:10pm 15.1 14.8 13.4 89 1.0 E 7 9 4 5 - - 0.0
20/09:00pm 15.3 14.3 13.5 89 1.1 E 11 17 6 9 - - 0.0
20/08:50pm 15.4 14.1 13.6 89 1.1 E 13 17 7 9 - - 0.0
20/08:40pm 15.3 14.3 13.5 89 1.1 E 11 19 6 10 - - 0.0
20/08:30pm 15.3 14.3 13.4 88 1.1 E 11 13 6 7 - - 0.0
20/08:20pm 15.3 14.6 13.3 88 1.2 E 9 13 5 7 - - 0.0
20/08:10pm 15.2 14.1 13.2 88 1.2 E 11 19 6 10 - - 0.0
20/08:00pm 15.2 14.1 13.2 88 1.2 E 11 17 6 9 - - 0.0
20/07:50pm 15.3 13.8 13.0 86 1.3 E 13 17 7 9 - - 0.0
20/07:40pm 15.4 13.9 13.0 85 1.4 E 13 17 7 9 - - 0.0
20/07:30pm 15.3 14.2 13.0 86 1.3 E 11 15 6 8 - - 0.0
20/07:20pm 15.4 13.9 13.0 85 1.4 E 13 15 7 8 - - 0.0
20/07:10pm 15.4 14.3 13.0 85 1.4 E 11 15 6 8 - - 0.0
20/07:00pm 15.5 14.0 13.0 85 1.4 E 13 17 7 9 - - 0.0
20/06:50pm 15.7 14.5 12.8 83 1.7 E 11 13 6 7 - - 0.0
20/06:40pm 15.8 14.3 13.0 83 1.6 E 13 15 7 8 - - 0.0
20/06:30pm 15.9 14.7 12.8 82 1.8 E 11 17 6 9 - - 0.0
20/06:20pm 16.1 14.9 12.9 81 1.9 E 11 15 6 8 - - 0.0
20/06:10pm 16.6 15.5 13.0 79 2.1 E 11 15 6 8 - - 0.0
20/06:00pm 17.0 15.1 13.1 78 2.3 E 15 19 8 10 - - 0.0
20/05:50pm 17.2 15.7 13.2 77 2.3 E 13 19 7 10 - - 0.0
20/05:40pm 17.1 15.6 13.0 77 2.4 E 13 17 7 9 - - 0.0
20/05:30pm 17.9 15.5 12.6 71 3.1 E 17 24 9 13 - - 0.0
20/05:20pm 18.9 16.5 12.7 67 3.6 E 17 22 9 12 - - 0.0
20/05:10pm 19.1 16.8 11.8 62 4.2 E 15 19 8 10 - - 0.0
20/05:00pm 19.1 16.9 12.2 64 4.0 E 15 19 8 10 - - 0.0
20/04:50pm 19.2 16.5 11.7 62 4.3 E 17 20 9 11 - - 0.0
20/04:40pm 19.8 17.0 11.5 58 4.8 E 17 20 9 11 - - 0.0
20/04:30pm 19.9 16.9 11.9 60 4.6 E 19 26 10 14 - - 0.0
20/04:20pm 20.1 16.7 10.6 54 5.4 E 19 24 10 13 - - 0.0
20/04:10pm 20.6 17.9 11.6 56 5.2 E 17 20 9 11 - - 0.0
20/04:00pm 20.5 17.1 10.6 53 5.6 E 19 24 10 13 - - 0.0
20/03:50pm 20.5 17.0 10.8 53 5.5 E 20 24 11 13 - - 0.0
20/03:40pm 21.1 18.2 11.0 52 5.8 E 17 22 9 12 - - 0.0
20/03:30pm 20.8 17.4 10.7 52 5.8 E 19 26 10 14 - - 0.0
20/03:20pm 21.2 17.9 10.9 51 5.9 E 19 22 10 12 - - 0.0
20/03:10pm 21.1 18.3 11.5 54 5.6 E 17 20 9 11 - - 0.0

Other formats

Comma delimited format used in spreadsheet applications
http://www.bom.gov.au/fwo/IDQ60801/IDQ60801.99124.axf

JavaScript Object Notation format (JSON) in row-major order
http://www.bom.gov.au/fwo/IDQ60801/IDQ60801.99124.json

Data quality

Most of these data are generated automatically and are frequently updated. Quality checks on data are not normally performed. It is possible for incorrect values to appear. Refer to information at About Latest Weather Observations and please check the disclaimer before using these data.